Time;durP1;ratioP1;P1;durP2;ratioP2;P2;SDS_P1;SDS_P2;PMS_P1;PMS_P2;Temp;Humidity;BMP_temperature;BMP_pressure;BME280_temperature;BME280_humidity;BME280_pressure;Samples;Min_cycle;Max_cycle;Signal;HPM_P1;HPM_P2
2021/09/11 00:01:57;;;;;;;6.55;4.10;;;18.40;90.20;;;;;;5027377;28;20519;-68
2021/09/11 00:04:24;;;;;;;5.53;4.53;;;18.40;90.30;;;;;;5028144;28;20160;-68
2021/09/11 00:06:51;;;;;;;6.13;3.80;;;18.50;90.20;;;;;;5024767;28;20111;-69
2021/09/11 00:09:18;;;;;;;6.63;4.47;;;18.50;90.20;;;;;;5025200;28;20124;-68
2021/09/11 00:11:45;;;;;;;6.47;4.22;;;18.50;90.10;;;;;;5034816;28;20476;-68
2021/09/11 00:14:11;;;;;;;9.00;5.07;;;18.50;90.10;;;;;;5045247;28;20080;-68
2021/09/11 00:16:38;;;;;;;5.35;3.80;;;18.50;90.30;;;;;;5044623;28;20128;-68
2021/09/11 00:19:05;;;;;;;6.80;4.78;;;18.50;90.30;;;;;;5044796;28;20115;-69
2021/09/11 00:21:32;;;;;;;7.45;5.07;;;18.50;90.30;;;;;;5044637;28;20576;-69
2021/09/11 00:23:58;;;;;;;8.18;4.85;;;18.50;90.30;;;;;;5043872;28;20128;-69
2021/09/11 00:26:25;;;;;;;6.10;4.68;;;18.50;90.20;;;;;;5044485;28;20462;-69
2021/09/11 00:28:52;;;;;;;7.70;4.70;;;18.50;90.30;;;;;;5045118;28;20098;-69
2021/09/11 00:31:19;;;;;;;7.93;4.80;;;18.50;90.10;;;;;;5044957;28;20151;-69
2021/09/11 00:33:45;;;;;;;8.27;5.50;;;18.50;90.10;;;;;;5044273;28;20132;-69
2021/09/11 00:36:12;;;;;;;5.20;4.68;;;18.50;90.20;;;;;;5045713;28;20156;-70
2021/09/11 00:38:39;;;;;;;7.28;4.53;;;18.50;90.20;;;;;;5044820;28;20106;-68
2021/09/11 00:41:05;;;;;;;6.90;4.95;;;18.50;90.20;;;;;;5045024;28;20087;-70
2021/09/11 00:43:34;;;;;;;7.25;4.78;;;18.50;90.10;;;;;;5044840;28;20083;-69
2021/09/11 00:46:01;;;;;;;6.82;4.93;;;18.50;90.10;;;;;;5044993;28;20098;-69
2021/09/11 00:48:28;;;;;;;7.95;5.53;;;18.50;90.10;;;;;;5044830;28;20053;-69
2021/09/11 00:50:55;;;;;;;11.20;5.97;;;18.50;90.20;;;;;;5043721;28;20068;-68
2021/09/11 00:53:22;;;;;;;9.30;5.32;;;18.50;90.30;;;;;;5044221;28;20106;-70
2021/09/11 00:55:48;;;;;;;6.43;4.57;;;18.50;90.10;;;;;;5043123;28;20092;-70
2021/09/11 00:58:15;;;;;;;8.70;5.47;;;18.50;90.10;;;;;;5044541;28;20477;-70
2021/09/11 01:00:42;;;;;;;9.60;5.90;;;18.50;90.40;;;;;;5040336;28;20081;-69
2021/09/11 01:03:09;;;;;;;10.20;6.18;;;18.50;90.30;;;;;;5044832;28;20056;-69
2021/09/11 01:05:37;;;;;;;7.65;6.28;;;18.50;90.50;;;;;;5045418;28;20079;-70
2021/09/11 01:08:04;;;;;;;9.90;6.88;;;18.50;90.40;;;;;;5042993;28;20088;-69
2021/09/11 01:10:31;;;;;;;8.57;5.75;;;18.40;90.30;;;;;;5042811;28;20107;-70
2021/09/11 01:12:58;;;;;;;8.80;6.90;;;18.50;90.30;;;;;;5044376;28;20471;-70
2021/09/11 01:15:33;;;;;;;11.25;6.80;;;18.50;90.30;;;;;;5044008;28;20076;-69
2021/09/11 01:18:00;;;;;;;12.05;7.65;;;18.40;90.40;;;;;;5026745;28;20095;-69
2021/09/11 01:20:27;;;;;;;9.18;6.68;;;18.40;90.30;;;;;;5044363;28;20156;-69
2021/09/11 01:22:54;;;;;;;9.38;6.22;;;18.40;90.40;;;;;;5043624;28;20092;-70
2021/09/11 01:25:21;;;;;;;9.95;6.55;;;18.50;90.40;;;;;;5043773;28;20092;-69
2021/09/11 01:27:48;;;;;;;10.27;7.10;;;18.50;90.50;;;;;;5044302;28;20083;-70
2021/09/11 01:30:16;;;;;;;13.32;7.00;;;18.50;90.30;;;;;;5042928;28;20292;-69
2021/09/11 01:32:43;;;;;;;7.10;6.40;;;18.40;90.30;;;;;;5041902;28;20061;-68
2021/09/11 01:35:10;;;;;;;10.30;6.68;;;18.40;90.30;;;;;;5025956;28;20053;-68
2021/09/11 01:37:37;;;;;;;10.85;6.82;;;18.50;90.40;;;;;;5040758;28;20497;-68
2021/09/11 01:40:05;;;;;;;9.68;7.70;;;18.50;90.30;;;;;;5041207;28;20087;-68
2021/09/11 01:42:31;;;;;;;8.10;6.45;;;18.40;90.30;;;;;;5045653;28;20084;-69
2021/09/11 01:45:01;;;;;;;11.93;7.30;;;18.40;90.30;;;;;;5045886;28;20569;-69
2021/09/11 01:47:27;;;;;;;11.13;7.68;;;18.40;90.20;;;;;;5027650;28;20083;-68
2021/09/11 01:49:54;;;;;;;12.40;7.85;;;18.40;90.10;;;;;;5048444;28;20084;-68
2021/09/11 01:52:21;;;;;;;11.45;8.10;;;18.40;90.20;;;;;;5047223;28;20076;-68
2021/09/11 01:54:48;;;;;;;11.13;7.25;;;18.40;90.10;;;;;;5046845;28;20063;-68
2021/09/11 01:57:14;;;;;;;11.65;8.45;;;18.40;90.30;;;;;;5045868;28;20047;-68
2021/09/11 01:59:42;;;;;;;12.80;8.90;;;18.40;90.30;;;;;;5046447;28;20077;-68
2021/09/11 02:02:09;;;;;;;9.43;7.72;;;18.30;90.40;;;;;;5045121;28;20049;-68
2021/09/11 02:04:36;;;;;;;10.52;7.85;;;18.30;90.30;;;;;;5047643;28;20140;-68
2021/09/11 02:07:03;;;;;;;13.38;8.73;;;18.30;90.30;;;;;;5046617;28;20140;-68
2021/09/11 02:09:31;;;;;;;10.18;7.78;;;18.40;90.10;;;;;;5047654;28;20472;-68
2021/09/11 02:11:57;;;;;;;13.85;8.07;;;18.40;90.10;;;;;;5029357;28;20052;-69
2021/09/11 02:14:24;;;;;;;10.65;7.97;;;18.30;90.10;;;;;;5046892;28;20160;-69
2021/09/11 02:16:51;;;;;;;14.98;9.35;;;18.30;90.00;;;;;;5045533;28;20136;-68
2021/09/11 02:19:18;;;;;;;13.80;8.77;;;18.30;90.10;;;;;;5046480;28;20073;-68
2021/09/11 02:21:45;;;;;;;11.52;7.50;;;18.30;90.00;;;;;;5045475;28;20049;-69
2021/09/11 02:24:11;;;;;;;12.18;8.63;;;18.30;90.00;;;;;;5029135;28;20091;-68
2021/09/11 02:26:38;;;;;;;13.52;8.18;;;18.30;90.00;;;;;;5045988;28;20535;-69
2021/09/11 02:29:05;;;;;;;9.75;7.68;;;18.30;90.00;;;;;;5046995;28;20049;-69
2021/09/11 02:31:32;;;;;;;10.50;8.00;;;18.30;89.80;;;;;;5045471;28;20191;-68
2021/09/11 02:33:58;;;;;;;10.52;7.90;;;18.30;89.80;;;;;;5044617;28;20072;-69
2021/09/11 02:36:25;;;;;;;11.25;8.07;;;18.30;89.80;;;;;;5045697;28;20091;-69
2021/09/11 02:38:52;;;;;;;11.15;8.70;;;18.30;89.70;;;;;;5046376;28;20485;-68
2021/09/11 02:41:19;;;;;;;9.45;7.32;;;18.30;89.70;;;;;;5046083;28;20111;-69
2021/09/11 02:43:45;;;;;;;12.48;8.68;;;18.30;89.60;;;;;;5046892;28;20076;-69
2021/09/11 02:46:12;;;;;;;13.43;8.30;;;18.30;89.50;;;;;;5044900;28;20099;-70
2021/09/11 02:48:39;;;;;;;11.43;8.45;;;18.30;89.60;;;;;;5047140;28;20246;-69
2021/09/11 02:51:06;;;;;;;10.00;7.22;;;18.30;89.50;;;;;;5046170;28;20527;-68
2021/09/11 02:53:32;;;;;;;16.58;7.88;;;18.30;89.70;;;;;;5045707;28;20073;-69
2021/09/11 02:55:59;;;;;;;12.70;8.10;;;18.30;89.70;;;;;;5046256;28;20077;-69
2021/09/11 02:58:26;;;;;;;11.95;8.23;;;18.30;89.60;;;;;;5045540;28;20076;-68
2021/09/11 03:00:53;;;;;;;10.73;8.23;;;18.30;89.60;;;;;;5045473;28;20151;-69
2021/09/11 03:03:20;;;;;;;10.13;8.27;;;18.30;89.80;;;;;;5045854;28;20053;-69
2021/09/11 03:05:47;;;;;;;11.38;7.80;;;18.30;89.70;;;;;;5046744;28;20152;-68
2021/09/11 03:08:14;;;;;;;9.68;7.57;;;18.30;89.80;;;;;;5045789;28;20606;-68
2021/09/11 03:10:45;;;;;;;12.32;7.55;;;18.30;89.60;;;;;;5045970;28;20099;-68
2021/09/11 03:13:12;;;;;;;9.55;7.40;;;18.20;89.90;;;;;;5046195;28;20061;-68
2021/09/11 03:15:39;;;;;;;11.23;7.40;;;18.20;90.00;;;;;;5045520;28;20045;-68
2021/09/11 03:18:05;;;;;;;10.45;8.63;;;18.30;89.80;;;;;;5044991;28;20095;-68
2021/09/11 03:20:32;;;;;;;15.50;8.45;;;18.30;89.70;;;;;;5046161;28;20083;-68
2021/09/11 03:22:59;;;;;;;9.65;8.18;;;18.20;89.60;;;;;;5045870;28;20136;-68
2021/09/11 03:25:25;;;;;;;12.77;8.65;;;18.30;89.80;;;;;;5045666;28;20083;-68
2021/09/11 03:27:52;;;;;;;12.00;8.23;;;18.20;89.90;;;;;;5045864;28;20282;-68
2021/09/11 03:30:19;;;;;;;13.13;7.20;;;18.20;89.90;;;;;;5045498;28;21014;-68
2021/09/11 03:32:46;;;;;;;14.13;7.95;;;18.20;90.00;;;;;;5045441;28;20144;-68
2021/09/11 03:35:13;;;;;;;13.77;7.63;;;18.20;90.00;;;;;;5045879;28;20045;-68
2021/09/11 03:37:40;;;;;;;11.93;8.50;;;18.20;90.00;;;;;;5045604;28;20083;-68
2021/09/11 03:40:07;;;;;;;12.20;8.35;;;18.20;90.00;;;;;;5045309;28;20128;-67
2021/09/11 03:42:35;;;;;;;12.95;9.20;;;18.20;90.00;;;;;;5045794;28;20056;-68
2021/09/11 03:45:02;;;;;;;10.50;7.93;;;18.10;90.00;;;;;;5045435;28;20061;-68
2021/09/11 03:47:28;;;;;;;13.90;8.38;;;18.20;90.10;;;;;;5045474;28;20132;-68
2021/09/11 03:49:55;;;;;;;9.20;7.70;;;18.10;90.20;;;;;;5046127;28;20515;-69
2021/09/11 03:52:22;;;;;;;11.80;8.38;;;18.10;90.10;;;;;;5045322;28;20049;-69
2021/09/11 03:54:49;;;;;;;11.52;7.50;;;18.10;90.10;;;;;;5045739;28;20096;-69
2021/09/11 03:57:15;;;;;;;13.43;7.57;;;18.10;90.10;;;;;;5044366;28;20069;-69
2021/09/11 03:59:42;;;;;;;12.73;7.60;;;18.00;90.20;;;;;;5046355;28;20072;-69
2021/09/11 04:02:09;;;;;;;11.23;8.02;;;18.10;90.10;;;;;;5044039;28;20140;-69
2021/09/11 04:04:36;;;;;;;9.77;8.25;;;18.10;90.20;;;;;;5045983;28;20350;-69
2021/09/11 04:07:03;;;;;;;12.00;7.55;;;18.10;90.20;;;;;;5044017;28;20076;-69
2021/09/11 04:09:30;;;;;;;10.10;8.10;;;18.00;90.20;;;;;;5045952;28;20102;-69
2021/09/11 04:11:57;;;;;;;8.82;7.13;;;18.10;90.10;;;;;;5045525;28;20136;-69
2021/09/11 04:14:23;;;;;;;9.23;7.13;;;18.10;90.20;;;;;;5046028;28;20157;-68
2021/09/11 04:16:50;;;;;;;14.80;7.78;;;18.10;90.10;;;;;;5043818;28;20141;-69
2021/09/11 04:19:17;;;;;;;10.73;7.47;;;18.10;90.10;;;;;;5045655;28;20063;-69
2021/09/11 04:21:44;;;;;;;10.50;6.97;;;18.10;90.20;;;;;;5045460;28;20053;-69
2021/09/11 04:24:11;;;;;;;13.05;7.43;;;18.10;90.20;;;;;;5045615;28;20739;-68
2021/09/11 04:26:38;;;;;;;9.68;7.22;;;18.00;90.20;;;;;;5047024;28;20143;-68
2021/09/11 04:29:05;;;;;;;9.50;6.68;;;18.00;90.10;;;;;;5049198;28;20080;-69
2021/09/11 04:31:32;;;;;;;12.85;7.75;;;18.10;90.10;;;;;;5047029;28;20511;-68
2021/09/11 04:33:58;;;;;;;10.75;7.40;;;18.00;90.10;;;;;;5048675;28;20515;-69
2021/09/11 04:36:25;;;;;;;14.05;7.95;;;18.10;90.00;;;;;;5048798;28;20135;-69
2021/09/11 04:38:52;;;;;;;10.82;7.32;;;18.00;90.00;;;;;;5049162;28;20073;-69
2021/09/11 04:41:19;;;;;;;11.75;6.95;;;18.00;90.00;;;;;;5048784;28;20088;-69
2021/09/11 04:43:45;;;;;;;11.00;6.38;;;18.10;90.00;;;;;;5047702;28;20069;-68
2021/09/11 04:46:12;;;;;;;14.43;6.75;;;18.00;90.00;;;;;;5046647;28;20080;-68
2021/09/11 04:48:39;;;;;;;12.48;7.55;;;18.10;90.00;;;;;;5044918;28;20045;-67
2021/09/11 04:51:05;;;;;;;8.57;5.97;;;18.10;89.90;;;;;;5046237;28;20135;-68
2021/09/11 04:53:32;;;;;;;10.45;6.85;;;18.10;89.80;;;;;;5046250;28;20118;-68
2021/09/11 04:55:59;;;;;;;9.23;6.45;;;18.10;89.70;;;;;;5046535;28;20128;-68
2021/09/11 04:58:26;;;;;;;9.73;7.47;;;18.10;89.80;;;;;;5046745;28;20045;-68
2021/09/11 05:00:52;;;;;;;10.32;7.10;;;18.00;89.90;;;;;;5045206;28;20084;-69
2021/09/11 05:03:19;;;;;;;9.73;6.90;;;18.10;89.90;;;;;;5041962;28;20466;-68
2021/09/11 05:05:46;;;;;;;8.27;6.57;;;18.10;89.90;;;;;;5043899;28;20404;-69
2021/09/11 05:08:17;;;;;;;12.38;8.32;;;18.00;89.80;;;;;;5044592;28;20594;-69
2021/09/11 05:10:45;;;;;;;11.98;8.05;;;18.00;89.70;;;;;;5043616;28;20500;-69
2021/09/11 05:13:13;;;;;;;9.65;7.60;;;18.10;89.70;;;;;;5044435;28;20045;-69
2021/09/11 05:15:40;;;;;;;9.18;6.45;;;18.10;89.60;;;;;;5044391;28;20114;-69
2021/09/11 05:18:06;;;;;;;10.43;7.13;;;18.10;89.60;;;;;;5044002;28;20527;-68
2021/09/11 05:20:33;;;;;;;10.43;7.10;;;18.10;89.60;;;;;;5044253;28;20052;-69
2021/09/11 05:23:00;;;;;;;9.52;7.55;;;18.10;89.60;;;;;;5043402;28;20140;-69
2021/09/11 05:25:27;;;;;;;16.48;7.55;;;18.10;89.60;;;;;;5044060;28;20163;-69
2021/09/11 05:27:54;;;;;;;10.80;6.45;;;18.00;89.60;;;;;;5044371;28;20544;-69
2021/09/11 05:30:21;;;;;;;9.65;6.50;;;18.10;89.60;;;;;;5043146;28;20590;-67
2021/09/11 05:32:47;;;;;;;12.38;7.55;;;18.00;89.60;;;;;;5043379;28;20752;-68
2021/09/11 05:35:15;;;;;;;8.27;6.20;;;18.10;89.50;;;;;;5043799;28;20124;-67
2021/09/11 05:37:41;;;;;;;10.75;6.50;;;18.10;89.40;;;;;;5043018;28;20068;-68
2021/09/11 05:40:08;;;;;;;18.55;7.30;;;18.10;89.30;;;;;;5041394;28;20152;-68
2021/09/11 05:42:36;;;;;;;7.68;6.28;;;18.10;89.50;;;;;;5039721;28;20132;-68
2021/09/11 05:45:05;;;;;;;9.50;6.90;;;18.00;89.50;;;;;;5043250;28;20048;-68
2021/09/11 05:47:35;;;;;;;9.52;6.60;;;18.00;89.50;;;;;;5042990;28;20472;-68
2021/09/11 05:50:02;;;;;;;7.90;6.75;;;18.00;89.50;;;;;;5043562;28;20091;-68
2021/09/11 05:52:29;;;;;;;11.20;5.93;;;18.10;89.30;;;;;;5039268;28;20045;-68
2021/09/11 05:54:55;;;;;;;8.07;6.10;;;18.10;89.30;;;;;;5043550;28;20076;-68
2021/09/11 05:57:24;;;;;;;11.00;7.10;;;18.00;89.30;;;;;;5041249;28;20131;-68
2021/09/11 05:59:51;;;;;;;9.38;6.15;;;18.00;89.20;;;;;;5031661;28;20072;-68
2021/09/11 06:02:18;;;;;;;13.40;6.00;;;18.10;89.20;;;;;;5042099;28;20055;-68
2021/09/11 06:04:45;;;;;;;10.25;6.10;;;18.00;89.20;;;;;;5043435;28;20057;-69
2021/09/11 06:07:12;;;;;;;8.98;6.72;;;18.10;89.30;;;;;;5041872;28;20057;-69
2021/09/11 06:09:39;;;;;;;6.20;5.57;;;18.10;88.90;;;;;;5040890;28;20131;-69
2021/09/11 06:12:10;;;;;;;7.30;6.25;;;18.10;88.90;;;;;;5031682;28;20159;-69
2021/09/11 06:14:37;;;;;;;12.10;7.13;;;18.10;88.80;;;;;;5041609;28;20084;-68
2021/09/11 06:17:05;;;;;;;9.07;6.15;;;18.10;88.90;;;;;;5041876;28;20102;-69
2021/09/11 06:19:32;;;;;;;8.13;6.03;;;18.10;88.90;;;;;;5043286;28;20077;-68
2021/09/11 06:21:59;;;;;;;7.80;6.25;;;18.10;88.90;;;;;;5042353;28;20084;-69
2021/09/11 06:24:26;;;;;;;9.00;5.80;;;18.10;88.60;;;;;;5042530;28;20128;-69
2021/09/11 06:26:53;;;;;;;8.48;5.82;;;18.10;88.80;;;;;;5024706;28;20164;-68
2021/09/11 06:29:20;;;;;;;10.43;5.80;;;18.10;88.70;;;;;;5041803;28;20045;-69
2021/09/11 06:31:47;;;;;;;6.93;5.38;;;18.10;88.80;;;;;;5042012;28;20127;-68
2021/09/11 06:34:14;;;;;;;10.07;5.72;;;18.10;88.70;;;;;;5041232;28;20045;-68
2021/09/11 06:36:41;;;;;;;8.45;6.28;;;18.10;89.20;;;;;;5042425;28;20145;-66
2021/09/11 06:39:08;;;;;;;7.63;6.05;;;18.10;88.40;;;;;;5042568;28;20479;-68
2021/09/11 06:41:34;;;;;;;6.97;5.60;;;18.10;88.50;;;;;;5041081;28;20052;-68
2021/09/11 06:44:01;;;;;;;8.35;6.03;;;18.10;88.40;;;;;;5042107;28;20084;-69
2021/09/11 06:46:28;;;;;;;8.95;5.60;;;18.20;88.40;;;;;;5041628;28;20448;-69
2021/09/11 06:48:55;;;;;;;10.27;6.07;;;18.10;88.40;;;;;;5024048;28;20056;-69
2021/09/11 06:51:22;;;;;;;9.93;6.07;;;18.10;88.30;;;;;;5041288;28;20902;-69
2021/09/11 06:53:49;;;;;;;8.75;5.43;;;18.10;88.30;;;;;;5038422;28;20133;-69
2021/09/11 06:56:16;;;;;;;7.78;6.10;;;18.20;88.50;;;;;;5029826;28;20045;-69
2021/09/11 06:58:43;;;;;;;9.02;5.10;;;18.20;88.30;;;;;;5031240;28;20076;-68
2021/09/11 07:01:10;;;;;;;6.18;5.57;;;18.20;88.30;;;;;;5036530;28;20532;-69
2021/09/11 07:03:37;;;;;;;8.20;5.97;;;18.20;88.10;;;;;;5035032;28;20545;-70
2021/09/11 07:06:05;;;;;;;8.02;5.32;;;18.20;88.10;;;;;;5023004;28;20072;-68
2021/09/11 07:08:32;;;;;;;8.27;5.82;;;18.30;88.10;;;;;;5026499;28;20148;-68
2021/09/11 07:10:59;;;;;;;22.55;6.22;;;18.30;87.90;;;;;;5046140;28;20054;-67
2021/09/11 07:13:26;;;;;;;9.05;5.90;;;18.40;87.60;;;;;;5047407;28;20055;-70
2021/09/11 07:15:53;;;;;;;7.25;5.60;;;18.40;87.30;;;;;;5029881;28;20137;-69
2021/09/11 07:18:20;;;;;;;7.40;5.05;;;18.40;87.30;;;;;;5034855;28;20064;-70
2021/09/11 07:20:46;;;;;;;7.53;5.95;;;18.40;87.30;;;;;;5031562;28;20076;-69
2021/09/11 07:23:13;;;;;;;7.75;6.10;;;18.40;87.00;;;;;;5037765;28;20081;-69
2021/09/11 07:25:40;;;;;;;8.25;5.70;;;18.40;87.20;;;;;;5033743;28;20771;-70
2021/09/11 07:28:07;;;;;;;9.55;5.72;;;18.40;87.20;;;;;;5037037;28;20123;-73
2021/09/11 07:30:35;;;;;;;9.43;5.82;;;18.40;87.20;;;;;;5026960;28;20174;-71
2021/09/11 07:33:03;;;;;;;6.35;5.15;;;18.40;87.10;;;;;;5037377;28;20059;-70
2021/09/11 07:35:29;;;;;;;8.20;6.60;;;18.50;87.20;;;;;;5025676;28;20057;-69
2021/09/11 07:37:56;;;;;;;7.65;6.10;;;18.50;86.80;;;;;;5036585;28;20041;-69
2021/09/11 07:40:23;;;;;;;8.77;5.90;;;18.40;86.60;;;;;;5039588;28;20139;-69
2021/09/11 07:42:50;;;;;;;8.30;5.13;;;18.50;86.90;;;;;;5037428;28;20243;-69
2021/09/11 07:45:17;;;;;;;11.25;6.63;;;18.50;86.60;;;;;;5037434;28;20075;-69
2021/09/11 07:47:44;;;;;;;7.65;5.05;;;18.40;86.80;;;;;;5032646;28;20073;-69
2021/09/11 07:50:11;;;;;;;5.85;5.25;;;18.40;86.90;;;;;;5028580;28;20080;-69
2021/09/11 07:52:39;;;;;;;8.13;5.32;;;18.40;86.90;;;;;;5026538;28;20095;-70
2021/09/11 07:55:07;;;;;;;7.55;6.05;;;18.50;87.50;;;;;;5036331;28;20049;-69
2021/09/11 07:57:34;;;;;;;8.07;5.70;;;18.50;86.90;;;;;;5031868;28;20135;-70
2021/09/11 08:00:01;;;;;;;7.38;6.05;;;18.40;86.60;;;;;;5026170;28;20512;-70
2021/09/11 08:02:27;;;;;;;8.65;5.28;;;18.40;86.70;;;;;;5026881;28;20049;-71
2021/09/11 08:04:55;;;;;;;6.97;5.53;;;18.40;86.90;;;;;;5038886;28;20084;-71
2021/09/11 08:07:25;;;;;;;9.20;5.80;;;18.50;86.90;;;;;;5034689;28;20526;-71
2021/09/11 08:09:52;;;;;;;7.20;5.45;;;18.50;86.60;;;;;;5037727;28;20084;-71
2021/09/11 08:12:19;;;;;;;8.70;5.50;;;18.50;86.50;;;;;;5006185;28;20210;-71
2021/09/11 08:14:45;;;;;;;9.70;6.05;;;18.50;86.30;;;;;;5045248;28;20080;-72
2021/09/11 08:17:12;;;;;;;7.57;5.35;;;18.50;86.30;;;;;;5035402;28;20068;-73
2021/09/11 08:19:39;;;;;;;8.02;5.68;;;18.50;86.30;;;;;;5033028;28;20073;-71
2021/09/11 08:22:06;;;;;;;10.55;5.93;;;18.60;86.40;;;;;;5024574;28;20128;-70
2021/09/11 08:24:32;;;;;;;7.85;5.63;;;18.60;86.10;;;;;;5035166;28;20151;-71
2021/09/11 08:26:59;;;;;;;7.93;5.45;;;18.60;86.10;;;;;;5038113;28;20513;-71
2021/09/11 08:29:26;;;;;;;8.07;5.90;;;18.60;86.10;;;;;;5021623;28;20702;-70
2021/09/11 08:31:53;;;;;;;7.53;5.70;;;18.60;85.90;;;;;;5020037;28;20156;-69
2021/09/11 08:34:19;;;;;;;8.30;5.88;;;18.60;85.90;;;;;;5034099;28;20055;-69
2021/09/11 08:36:46;;;;;;;9.20;6.55;;;18.60;85.90;;;;;;5040341;28;20080;-70
2021/09/11 08:39:24;;;;;;;12.55;5.88;;;18.60;85.90;;;;;;5041372;28;20131;-72
2021/09/11 08:41:54;;;;;;;8.35;6.00;;;18.50;85.80;;;;;;5034064;28;20140;-72
2021/09/11 08:44:22;;;;;;;11.27;7.07;;;18.50;86.20;;;;;;5034276;28;20836;-73
2021/09/11 08:46:49;;;;;;;8.63;5.88;;;18.50;86.00;;;;;;5021254;28;20754;-72
2021/09/11 08:49:16;;;;;;;7.60;6.45;;;18.60;85.70;;;;;;5038201;28;20083;-72
2021/09/11 08:51:43;;;;;;;9.90;6.47;;;18.60;85.80;;;;;;5040755;28;20139;-72
2021/09/11 08:54:14;;;;;;;10.30;7.47;;;18.60;85.80;;;;;;5022975;28;20132;-72
2021/09/11 08:56:41;;;;;;;7.07;5.57;;;18.70;85.80;;;;;;5035052;28;20057;-73
2021/09/11 08:59:14;;;;;;;10.55;6.20;;;18.70;85.00;;;;;;5038862;28;20072;-72
2021/09/11 09:01:41;;;;;;;;;;;18.80;85.10;;;;;;5033192;28;20132;-72
2021/09/11 09:04:08;;;;;;;9.50;6.28;;;18.70;85.00;;;;;;5034726;28;19968;-73
2021/09/11 09:06:37;;;;;;;8.02;5.82;;;18.80;84.90;;;;;;5033637;28;20459;-71
2021/09/11 09:09:12;;;;;;;10.98;5.75;;;18.80;84.80;;;;;;5014759;28;20713;-72
2021/09/11 09:11:42;;;;;;;9.40;5.85;;;18.70;84.80;;;;;;5029997;28;20208;-72
2021/09/11 09:14:11;;;;;;;8.77;6.20;;;18.80;85.50;;;;;;5037051;28;20052;-72
2021/09/11 09:16:38;;;;;;;9.73;6.18;;;18.80;84.80;;;;;;5041370;28;20049;-72
2021/09/11 09:19:11;;;;;;;8.10;5.75;;;18.90;84.40;;;;;;5021738;28;20053;-72
2021/09/11 09:21:39;;;;;;;8.65;5.45;;;18.80;84.00;;;;;;5035743;28;20128;-71
2021/09/11 09:24:08;;;;;;;8.23;5.55;;;18.80;84.00;;;;;;5020459;28;20048;-72
2021/09/11 09:26:50;;;;;;;7.35;5.28;;;18.90;84.20;;;;;;5029993;28;20095;-72
2021/09/11 09:29:18;;;;;;;7.30;5.57;;;19.00;83.70;;;;;;5031029;28;20560;-73
2021/09/11 09:31:45;;;;;;;11.13;5.40;;;19.00;83.30;;;;;;5046893;28;20049;-72
2021/09/11 09:34:32;;;;;;;9.60;5.68;;;19.00;83.30;;;;;;5033252;28;20045;-71
2021/09/11 09:37:00;;;;;;;10.32;6.18;;;19.00;82.80;;;;;;5037466;28;20067;-69
2021/09/11 09:39:27;;;;;;;8.88;5.28;;;19.10;82.90;;;;;;5035761;28;20111;-71
2021/09/11 09:42:01;;;;;;;10.80;5.95;;;19.20;82.70;;;;;;5036029;28;20057;-72
2021/09/11 09:44:28;;;;;;;7.68;5.45;;;19.20;82.10;;;;;;5040098;28;20488;-72
2021/09/11 09:46:54;;;;;;;9.30;5.90;;;19.30;82.00;;;;;;5039758;28;20172;-71
2021/09/11 09:49:23;;;;;;;5.97;4.82;;;19.40;82.10;;;;;;5039038;28;20134;-72
2021/09/11 09:51:51;;;;;;;8.23;5.25;;;19.40;82.00;;;;;;5037223;28;20673;-71
2021/09/11 09:54:18;;;;;;;9.57;4.95;;;19.50;81.60;;;;;;5037434;28;20056;-71
2021/09/11 09:56:45;;;;;;;11.00;5.90;;;19.50;80.70;;;;;;5039244;28;20445;-71
2021/09/11 09:59:12;;;;;;;9.85;4.72;;;19.60;80.90;;;;;;5022298;28;20096;-72
2021/09/11 10:01:40;;;;;;;9.48;5.88;;;19.70;80.20;;;;;;5035560;28;20053;-72
2021/09/11 10:04:15;;;;;;;8.25;5.40;;;19.90;80.60;;;;;;5036354;28;20514;-72
2021/09/11 10:06:43;;;;;;;8.82;4.43;;;20.10;77.60;;;;;;5050454;28;20088;-73
2021/09/11 10:09:10;;;;;;;6.72;4.70;;;20.00;78.80;;;;;;5035514;28;20098;-73
2021/09/11 10:11:38;;;;;;;7.32;5.18;;;20.10;79.40;;;;;;5019853;28;20170;-72
2021/09/11 10:14:11;;;;;;;7.38;4.30;;;20.00;77.80;;;;;;5037782;28;20084;-72
2021/09/11 10:16:40;;;;;;;7.53;4.88;;;20.00;77.70;;;;;;5019325;28;20077;-73
2021/09/11 10:19:19;;;;;;;9.82;4.53;;;20.00;77.70;;;;;;5035703;28;20876;-72
2021/09/11 10:21:47;;;;;;;8.70;4.80;;;20.00;77.30;;;;;;5033714;28;20049;-72
2021/09/11 10:24:14;;;;;;;8.10;4.35;;;20.00;78.00;;;;;;5037909;28;20165;-74
2021/09/11 10:26:47;;;;;;;6.13;4.82;;;20.10;77.00;;;;;;5036879;28;20576;-71
2021/09/11 10:29:33;;;;;;;9.15;5.00;;;20.10;77.00;;;;;;5034371;28;20076;-72
2021/09/11 10:32:00;;;;;;;7.15;4.50;;;20.10;75.70;;;;;;5031998;28;20457;-72
2021/09/11 10:35:12;;;;;;;9.85;4.63;;;20.10;76.80;;;;;;5028819;28;20045;-74
2021/09/11 10:37:46;;;;;;;10.40;4.60;;;20.30;75.90;;;;;;5007996;28;20130;-73
2021/09/11 10:40:21;;;;;;;9.23;4.85;;;20.50;74.70;;;;;;5007143;28;20615;-74
2021/09/11 10:45:57;;;;;;;5.30;4.57;;;20.70;74.10;;;;;;5034005;28;20657;-73
2021/09/11 10:48:39;;;;;;;5.82;4.22;;;20.70;73.10;;;;;;5023117;28;20075;-73
2021/09/11 10:51:18;;;;;;;7.97;5.13;;;20.70;73.30;;;;;;5035504;28;20057;-73
2021/09/11 10:54:02;;;;;;;8.13;4.32;;;20.60;72.70;;;;;;5038753;28;20084;-73
2021/09/11 10:56:33;;;;;;;4.93;3.70;;;20.60;73.30;;;;;;5036112;28;20145;-74
2021/09/11 10:59:26;;;;;;;5.10;3.80;;;20.50;72.30;;;;;;5015415;28;20060;-74
2021/09/11 11:02:07;;;;;;;4.27;3.03;;;20.50;72.30;;;;;;5024842;28;20057;-73
2021/09/11 11:04:41;;;;;;;5.05;3.58;;;20.60;71.40;;;;;;5023992;28;20053;-72
2021/09/11 11:07:09;;;;;;;4.13;2.97;;;20.70;71.10;;;;;;5029001;28;20063;-72
2021/09/11 11:09:40;;;;;;;19.35;3.78;;;21.00;72.30;;;;;;5033550;28;20049;-72
2021/09/11 11:12:08;;;;;;;4.80;2.78;;;21.10;71.80;;;;;;5023961;28;20457;-72
2021/09/11 11:14:37;;;;;;;3.65;2.50;;;21.20;71.20;;;;;;5038935;28;20131;-73
2021/09/11 11:17:04;;;;;;;4.13;2.88;;;21.20;70.40;;;;;;5019505;28;20103;-72
2021/09/11 11:19:32;;;;;;;3.47;2.90;;;21.00;69.50;;;;;;5034425;28;20096;-72
2021/09/11 11:22:07;;;;;;;4.78;3.10;;;21.00;69.90;;;;;;5033715;28;20060;-72
2021/09/11 11:24:39;;;;;;;4.45;2.67;;;21.00;68.90;;;;;;5036590;28;20496;-72
2021/09/11 11:27:07;;;;;;;4.00;2.53;;;21.20;68.60;;;;;;5031788;28;20107;-71
2021/09/11 11:29:34;;;;;;;4.78;2.95;;;21.30;68.50;;;;;;5038603;28;20131;-72
2021/09/11 11:32:02;;;;;;;5.70;3.30;;;21.40;66.60;;;;;;5035109;28;20548;-71
2021/09/11 11:34:29;;;;;;;4.85;2.90;;;21.40;67.90;;;;;;5034939;28;20381;-72
2021/09/11 11:36:59;;;;;;;5.30;2.78;;;21.40;67.20;;;;;;5038343;28;20624;-72
2021/09/11 11:39:37;;;;;;;4.75;2.72;;;21.40;66.60;;;;;;5037159;28;20860;-71
2021/09/11 11:42:05;;;;;;;6.38;2.88;;;21.50;66.40;;;;;;5033840;28;20080;-71
2021/09/11 11:44:36;;;;;;;4.10;2.72;;;21.80;67.80;;;;;;5052012;28;20125;-72
2021/09/11 11:47:19;;;;;;;4.55;2.80;;;21.90;67.50;;;;;;5034324;28;20136;-72
2021/09/11 11:49:45;;;;;;;3.75;2.20;;;22.10;64.00;;;;;;5040810;28;20469;-72
2021/09/11 11:52:13;;;;;;;7.65;2.55;;;22.30;64.00;;;;;;5040733;28;20155;-72
2021/09/11 11:54:43;;;;;;;4.20;2.67;;;22.50;64.80;;;;;;5028899;28;20577;-72
2021/09/11 11:57:11;;;;;;;3.45;2.83;;;22.50;64.20;;;;;;5029892;28;20140;-72
2021/09/11 11:59:39;;;;;;;3.03;2.00;;;22.90;63.40;;;;;;5039126;28;20099;-72
2021/09/11 12:02:20;;;;;;;5.82;2.95;;;23.20;63.10;;;;;;5039269;28;20140;-73
2021/09/11 12:04:48;;;;;;;3.92;2.58;;;23.00;60.50;;;;;;5035912;28;20590;-71
2021/09/11 12:07:31;;;;;;;4.72;2.53;;;22.90;61.70;;;;;;5029784;28;20045;-72
2021/09/11 12:10:02;;;;;;;3.75;2.63;;;22.70;60.80;;;;;;5022497;28;20132;-72
2021/09/11 12:12:43;;;;;;;4.13;2.45;;;22.60;63.00;;;;;;5026380;28;20136;-72
2021/09/11 12:15:15;;;;;;;3.58;2.25;;;22.50;63.90;;;;;;5037537;28;20135;-72
2021/09/11 12:18:02;;;;;;;4.07;2.65;;;22.50;61.50;;;;;;5037620;28;20148;-71
2021/09/11 12:21:08;;;;;;;3.05;2.15;;;22.60;61.10;;;;;;5035124;28;20628;-71
2021/09/11 12:23:37;;;;;;;3.42;2.25;;;22.90;59.90;;;;;;5030115;28;20132;-72
2021/09/11 12:26:11;;;;;;;3.33;1.90;;;22.80;61.90;;;;;;5037035;28;20080;-72
2021/09/11 12:28:48;;;;;;;3.67;2.00;;;23.00;61.00;;;;;;5039401;28;20535;-72
2021/09/11 12:31:25;;;;;;;3.88;1.77;;;23.10;59.70;;;;;;5040408;28;20135;-72
2021/09/11 12:34:19;;;;;;;2.35;1.80;;;23.20;59.00;;;;;;5038123;28;20051;-72
2021/09/11 12:37:00;;;;;;;4.03;1.60;;;23.70;57.70;;;;;;5019309;28;20145;-72
2021/09/11 12:39:28;;;;;;;4.15;2.00;;;24.40;57.50;;;;;;5022669;28;20077;-71
2021/09/11 12:41:57;;;;;;;3.70;1.92;;;24.80;57.10;;;;;;5034419;28;20122;-72
2021/09/11 12:44:30;;;;;;;6.78;1.65;;;25.20;57.20;;;;;;5039228;28;20084;-72
2021/09/11 12:46:58;;;;;;;2.08;1.63;;;25.60;57.50;;;;;;5033061;28;20195;-72
2021/09/11 12:49:26;;;;;;;2.25;1.48;;;25.80;56.20;;;;;;5031566;28;20140;-72
2021/09/11 12:51:53;;;;;;;4.03;1.70;;;25.60;55.40;;;;;;5039846;28;20076;-72
2021/09/11 12:54:21;;;;;;;3.67;1.58;;;25.90;53.50;;;;;;5039019;28;20110;-72